ArgentinaFixed distance
Tandil Ultra Trail
11 Aug2024
Distance
45km
Finishers
8971 men18 women
Winning time
3:42:25h
Median pace
8.29km/h
Pace distribution
89 finishers · 5.50–12.14 km/h · mean 8.59
Every finisher ran the same 45 km course, so these paces are directly comparable.
Histogram of finisher pace. 89 finishers ranged from 5.50 to 12.14 kilometres per hour, with a mean of 8.59 and a median of 8.29. The busiest band is 7.5 to 8.0 kilometres per hour, with 19 finishers.
Results
Ranks 1–50 of 89
| Rank | Runner | Time | Pace | Cat. | Placing |
|---|---|---|---|---|---|
| 1 | Libre | 3:42:25h | 12.14 | M35 | 1st M · 1st M35 |
| 2 | Libre | 3:48:53h | 11.80 | M23 | 2nd M · 1st M23 |
| 3 | Diego Simon Trail Run | 3:53:29h | 11.56 | M45 | 3rd M · 1st M45 |
| 4 | Kuden Group Tandil | 4:06:47h | 10.94 | M40 | 4th M · 1st M40 |
| 5 | Rift | 4:12:39h | 10.69 | M35 | 5th M · 2nd M35 |
| 6 | Otta Team | 4:12:39h | 10.69 | M45 | 5th M · 2nd M45 |
| 7 | Kumelen Running | 4:20:17h | 10.37 | M45 | 7th M · 3rd M45 |
| 8 | DD Running Team | 4:23:18h | 10.25 | M55 | 8th M · 1st M55 |
| 9 | Metodo Running Laprida | 4:25:17h | 10.18 | M23 | 9th M · 2nd M23 |
| 10 | DD Running Team | 4:27:22h | 10.10 | M55 | 10th M · 2nd M55 |
| 11 | Animas Team | 4:28:42h | 10.05 | M35 | 11th M · 3rd M35 |
| 12 | GET FIT Mercedes | 4:29:27h | 10.02 | M35 | 12th M · 4th M35 |
| 13 | GET FIT Mercedes | 4:30:53h | 9.97 | M40 | 13th M · 2nd M40 |
| 14 | Diego Simon Trail Run | 4:30:53h | 9.97 | M40 | 13th M · 2nd M40 |
| 15 | Diego Simon Trail Run | 4:33:52h | 9.86 | M23 | 15th M · 3rd M23 |
| 16 | Libre | 4:36:53h | 9.75 | M40 | 16th M · 4th M40 |
| 17 | Libre | 4:37:15h | 9.74 | W35 | 1st F · 1st W35 |
| 18 | LA Plata Trepa Running... | 4:37:40h | 9.72 | M40 | 17th M · 5th M40 |
| 19 | Gustatrail | 4:38:12h | 9.71 | M45 | 18th M · 4th M45 |
| 20 | IRU Deportes | 4:39:15h | 9.67 | M23 | 19th M · 4th M23 |
| 21 | LOS Flamencos | 4:40:39h | 9.62 | M40 | 20th M · 6th M40 |
| 22 | Ever Ready | 4:41:13h | 9.60 | M45 | 21st M · 5th M45 |
| 23 | Nahuel Luengo Running ... | 4:43:25h | 9.53 | M23 | 22nd M · 5th M23 |
| 24 | Libre | 4:43:53h | 9.51 | W23 | 2nd F · 1st W23 |
| 25 | Team General Belgrano | 4:45:02h | 9.47 | M45 | 23rd M · 6th M45 |
| 26 | Pulso Activo | 4:49:38h | 9.32 | M40 | 24th M · 7th M40 |
| 27 | Kumelen Running | 4:50:08h | 9.31 | M45 | 25th M · 7th M45 |
| 28 | Kumelen Running | 4:50:55h | 9.28 | M35 | 26th M · 5th M35 |
| 29 | Corre POR TuS Sueños | 4:50:59h | 9.28 | M50 | 27th M · 1st M50 |
| 30 | Advance Trail Running ... | 4:51:14h | 9.27 | M35 | 28th M · 6th M35 |
| 31 | Advance Trail Running ... | 4:51:15h | 9.27 | M23 | 29th M · 6th M23 |
| 32 | Advance Trail Running ... | 4:51:16h | 9.27 | M23 | 30th M · 7th M23 |
| 33 | Team Lucho Pilatti | 4:57:25h | 9.08 | M23 | 31st M · 8th M23 |
| 34 | Diego Simon Trail Run | 4:59:03h | 9.03 | M45 | 32nd M · 8th M45 |
| 35 | Libre | 4:59:08h | 9.03 | M23 | 33rd M · 9th M23 |
| 36 | Corre POR TuS Sueños | 5:00:27h | 8.99 | M40 | 34th M · 8th M40 |
| 37 | Pauluzak Trail Running... | 5:01:14h | 8.96 | W23 | 3rd F · 2nd W23 |
| 38 | HR Entrenamiento | 5:03:28h | 8.90 | M35 | 35th M · 7th M35 |
| 39 | Diego Simon Trail Run | 5:04:26h | 8.87 | M40 | 36th M · 9th M40 |
| 40 | Libre | 5:08:48h | 8.74 | M55 | 37th M · 3rd M55 |
| 41 | DD Running Team | 5:09:11h | 8.73 | M65 | 38th M · 1st M65 |
| 42 | Daniel Simbron Running... | 5:09:16h | 8.73 | M35 | 39th M · 8th M35 |
| 43 | Cool Training | 5:10:30h | 8.70 | M45 | 40th M · 9th M45 |
| 44 | Libre | 5:23:35h | 8.34 | M40 | 41st M · 10th M40 |
| 45 | LA Plata Trepa Running... | 5:25:51h | 8.29 | M45 | 42nd M · 10th M45 |
| 46 | Libre | 5:26:22h | 8.27 | W23 | 4th F · 3rd W23 |
| 47 | Libre | 5:26:28h | 8.27 | M50 | 43rd M · 2nd M50 |
| 48 | Libre | 5:28:31h | 8.22 | M40 | 44th M · 11th M40 |
| 49 | Picantes Running Team | 5:29:07h | 8.20 | M60 | 45th M · 1st M60 |
| 50 | Tandil Sport | 5:33:06h | 8.11 | M35 | 46th M · 9th M35 |
- 1Libre1st M · 1st M35Time3:42:25hPace12.14Cat.M35
- 2Libre2nd M · 1st M23Time3:48:53hPace11.80Cat.M23
- 3Diego Simon Trail Run3rd M · 1st M45Time3:53:29hPace11.56Cat.M45
- 4Kuden Group Tandil4th M · 1st M40Time4:06:47hPace10.94Cat.M40
- 5Rift5th M · 2nd M35Time4:12:39hPace10.69Cat.M35
- 6Otta Team5th M · 2nd M45Time4:12:39hPace10.69Cat.M45
- 7Kumelen Running7th M · 3rd M45Time4:20:17hPace10.37Cat.M45
- 8DD Running Team8th M · 1st M55Time4:23:18hPace10.25Cat.M55
- 9Metodo Running Laprida9th M · 2nd M23Time4:25:17hPace10.18Cat.M23
- 10DD Running Team10th M · 2nd M55Time4:27:22hPace10.10Cat.M55
- 11Animas Team11th M · 3rd M35Time4:28:42hPace10.05Cat.M35
- 12GET FIT Mercedes12th M · 4th M35Time4:29:27hPace10.02Cat.M35
- 13GET FIT Mercedes13th M · 2nd M40Time4:30:53hPace9.97Cat.M40
- 14Diego Simon Trail Run13th M · 2nd M40Time4:30:53hPace9.97Cat.M40
- 15Diego Simon Trail Run15th M · 3rd M23Time4:33:52hPace9.86Cat.M23
- 16Libre16th M · 4th M40Time4:36:53hPace9.75Cat.M40
- 17Libre1st F · 1st W35Time4:37:15hPace9.74Cat.W35
- 18LA Plata Trepa Running...17th M · 5th M40Time4:37:40hPace9.72Cat.M40
- 19Gustatrail18th M · 4th M45Time4:38:12hPace9.71Cat.M45
- 20IRU Deportes19th M · 4th M23Time4:39:15hPace9.67Cat.M23
- 21LOS Flamencos20th M · 6th M40Time4:40:39hPace9.62Cat.M40
- 22Ever Ready21st M · 5th M45Time4:41:13hPace9.60Cat.M45
- 23Nahuel Luengo Running ...22nd M · 5th M23Time4:43:25hPace9.53Cat.M23
- 24Libre2nd F · 1st W23Time4:43:53hPace9.51Cat.W23
- 25Team General Belgrano23rd M · 6th M45Time4:45:02hPace9.47Cat.M45
- 26Pulso Activo24th M · 7th M40Time4:49:38hPace9.32Cat.M40
- 27Kumelen Running25th M · 7th M45Time4:50:08hPace9.31Cat.M45
- 28Kumelen Running26th M · 5th M35Time4:50:55hPace9.28Cat.M35
- 29Corre POR TuS Sueños27th M · 1st M50Time4:50:59hPace9.28Cat.M50
- 30Advance Trail Running ...28th M · 6th M35Time4:51:14hPace9.27Cat.M35
- 31Advance Trail Running ...29th M · 6th M23Time4:51:15hPace9.27Cat.M23
- 32Advance Trail Running ...30th M · 7th M23Time4:51:16hPace9.27Cat.M23
- 33Team Lucho Pilatti31st M · 8th M23Time4:57:25hPace9.08Cat.M23
- 34Diego Simon Trail Run32nd M · 8th M45Time4:59:03hPace9.03Cat.M45
- 35Libre33rd M · 9th M23Time4:59:08hPace9.03Cat.M23
- 36Corre POR TuS Sueños34th M · 8th M40Time5:00:27hPace8.99Cat.M40
- 37Pauluzak Trail Running...3rd F · 2nd W23Time5:01:14hPace8.96Cat.W23
- 38HR Entrenamiento35th M · 7th M35Time5:03:28hPace8.90Cat.M35
- 39Diego Simon Trail Run36th M · 9th M40Time5:04:26hPace8.87Cat.M40
- 40Libre37th M · 3rd M55Time5:08:48hPace8.74Cat.M55
- 41DD Running Team38th M · 1st M65Time5:09:11hPace8.73Cat.M65
- 42Daniel Simbron Running...39th M · 8th M35Time5:09:16hPace8.73Cat.M35
- 43Cool Training40th M · 9th M45Time5:10:30hPace8.70Cat.M45
- 44Libre41st M · 10th M40Time5:23:35hPace8.34Cat.M40
- 45LA Plata Trepa Running...42nd M · 10th M45Time5:25:51hPace8.29Cat.M45
- 46Libre4th F · 3rd W23Time5:26:22hPace8.27Cat.W23
- 47Libre43rd M · 2nd M50Time5:26:28hPace8.27Cat.M50
- 48Libre44th M · 11th M40Time5:28:31hPace8.22Cat.M40
- 49Picantes Running Team45th M · 1st M60Time5:29:07hPace8.20Cat.M60
- 50Tandil Sport46th M · 9th M35Time5:33:06hPace8.11Cat.M35
Showing ranks 1–50 of 89